Time;durP1;ratioP1;P1;durP2;ratioP2;P2;SDS_P1;SDS_P2;PMS_P1;PMS_P2;Temp;Humidity;BMP_temperature;BMP_pressure;BME280_temperature;BME280_humidity;BME280_pressure;Samples;Min_cycle;Max_cycle;Signal;HPM_P1;HPM_P2
2022/12/14 00:01:58;;;;;;;51.13;33.43;;;-4.50;99.90;;;;;;5157223;27;20438;-75
2022/12/14 00:04:26;;;;;;;50.47;33.10;;;-4.50;99.90;;;;;;5157230;27;20453;-75
2022/12/14 00:06:54;;;;;;;48.70;33.10;;;-4.50;99.90;;;;;;5157185;27;20448;-75
2022/12/14 00:09:22;;;;;;;47.97;32.67;;;-4.60;99.90;;;;;;5157082;27;20497;-75
2022/12/14 00:11:50;;;;;;;49.83;33.40;;;-4.60;99.90;;;;;;5157479;27;20595;-75
2022/12/14 00:14:18;;;;;;;52.20;32.73;;;-4.60;99.90;;;;;;5138538;27;20522;-75
2022/12/14 00:16:47;;;;;;;54.33;35.97;;;-4.60;99.90;;;;;;5157474;27;20473;-76
2022/12/14 00:19:17;;;;;;;50.83;34.43;;;-4.60;99.90;;;;;;5157859;27;20441;-73
2022/12/14 00:21:45;;;;;;;48.20;32.30;;;-4.60;99.90;;;;;;5144276;27;20437;-75
2022/12/14 00:24:13;;;;;;;45.50;31.27;;;-4.60;99.90;;;;;;5161788;27;20462;-75
2022/12/14 00:26:41;;;;;;;46.70;33.83;;;-4.60;99.90;;;;;;5153341;27;20462;-75
2022/12/14 00:29:09;;;;;;;49.47;33.00;;;-4.60;99.90;;;;;;5158361;27;20434;-75
2022/12/14 00:31:37;;;;;;;48.10;32.43;;;-4.60;99.90;;;;;;5161482;27;20463;-75
2022/12/14 00:34:05;;;;;;;49.57;31.27;;;-4.70;99.90;;;;;;5140189;27;21121;-75
2022/12/14 00:36:36;;;;;;;52.83;34.90;;;-4.70;99.90;;;;;;5158195;27;20430;-75
2022/12/14 00:39:05;;;;;;;51.73;32.43;;;-4.70;99.90;;;;;;5158411;27;20445;-75
2022/12/14 00:41:33;;;;;;;53.10;34.10;;;-4.70;99.90;;;;;;5157948;27;20429;-75
2022/12/14 00:44:01;;;;;;;51.37;35.03;;;-4.70;99.90;;;;;;5156831;27;20457;-75
2022/12/14 00:46:29;;;;;;;50.17;33.40;;;-4.70;99.90;;;;;;5157351;27;20490;-75
2022/12/14 00:48:57;;;;;;;51.30;35.77;;;-4.70;99.90;;;;;;5156590;27;20467;-75
2022/12/14 00:51:25;;;;;;;49.70;34.53;;;-4.70;99.90;;;;;;5156458;27;20470;-75
2022/12/14 00:53:55;;;;;;;45.13;32.20;;;-4.70;99.90;;;;;;5156295;27;20460;-76
2022/12/14 00:56:23;;;;;;;46.87;31.37;;;-4.80;99.90;;;;;;5157212;27;20437;-75
2022/12/14 00:58:51;;;;;;;46.50;30.90;;;-4.80;99.90;;;;;;5156033;27;20856;-75
2022/12/14 01:01:20;;;;;;;48.73;29.50;;;-4.80;99.90;;;;;;5156438;27;20450;-75
2022/12/14 01:03:49;;;;;;;46.57;31.40;;;-4.80;99.90;;;;;;5156347;27;20429;-75
2022/12/14 01:06:19;;;;;;;49.43;33.87;;;-4.80;99.90;;;;;;5137345;27;20452;-75
2022/12/14 01:08:47;;;;;;;47.60;31.03;;;-4.80;99.90;;;;;;5137275;27;20457;-75
2022/12/14 01:11:17;;;;;;;47.60;32.33;;;-4.80;99.90;;;;;;5137331;27;20977;-75
2022/12/14 01:13:45;;;;;;;46.50;32.33;;;-4.80;99.90;;;;;;5137231;27;20502;-75
2022/12/14 01:16:16;;;;;;;47.17;30.57;;;-4.80;99.90;;;;;;5154822;27;20418;-75
2022/12/14 01:18:45;;;;;;;47.17;31.23;;;-4.80;99.90;;;;;;5136472;27;20437;-75
2022/12/14 01:21:15;;;;;;;47.47;29.80;;;-4.80;99.90;;;;;;5155630;27;20453;-75
2022/12/14 01:23:44;;;;;;;43.03;30.27;;;-4.90;99.90;;;;;;5137305;27;20465;-75
2022/12/14 01:26:13;;;;;;;43.73;30.90;;;-4.90;99.90;;;;;;5155604;27;20430;-74
2022/12/14 01:28:43;;;;;;;51.70;31.17;;;-4.90;99.90;;;;;;5155581;27;20449;-74
2022/12/14 01:31:13;;;;;;;45.87;30.87;;;-4.90;99.90;;;;;;5156122;27;20452;-75
2022/12/14 01:33:42;;;;;;;47.13;29.70;;;-4.90;99.90;;;;;;5155302;27;20464;-75
2022/12/14 01:36:11;;;;;;;45.90;30.53;;;-4.90;99.90;;;;;;5155643;27;20435;-75
2022/12/14 01:38:40;;;;;;;46.10;30.60;;;-4.90;99.90;;;;;;5155371;27;20441;-75
2022/12/14 01:41:09;;;;;;;44.60;30.17;;;-4.90;99.90;;;;;;5155367;27;20448;-75
2022/12/14 01:43:50;;;;;;;47.07;30.60;;;-4.90;99.90;;;;;;5136805;27;20442;-75
2022/12/14 01:46:24;;;;;;;41.47;30.80;;;-5.00;99.90;;;;;;5155890;27;20410;-75
2022/12/14 01:48:56;;;;;;;45.70;30.57;;;-5.00;99.90;;;;;;5155879;27;20423;-75
2022/12/14 01:51:25;;;;;;;47.17;30.57;;;-5.00;99.90;;;;;;5155556;27;20417;-75
2022/12/14 01:53:55;;;;;;;49.73;31.20;;;-5.00;99.90;;;;;;5136483;27;20522;-75
2022/12/14 01:56:23;;;;;;;46.80;29.87;;;-5.00;99.90;;;;;;5155183;27;20478;-75
2022/12/14 01:58:53;;;;;;;45.23;29.07;;;-5.00;99.90;;;;;;5136487;27;20449;-75
2022/12/14 02:01:21;;;;;;;47.23;31.17;;;-5.10;99.90;;;;;;5136480;27;20451;-75
2022/12/14 02:03:51;;;;;;;43.97;29.43;;;-5.10;99.90;;;;;;5136345;27;20441;-75
2022/12/14 02:06:25;;;;;;;41.50;29.43;;;-5.10;99.90;;;;;;5152593;27;20794;-75
2022/12/14 02:08:54;;;;;;;43.53;28.40;;;-5.10;99.90;;;;;;5154675;27;20818;-75
2022/12/14 02:11:31;;;;;;;44.43;28.53;;;-5.10;99.90;;;;;;5136433;27;20450;-75
2022/12/14 02:14:00;;;;;;;41.97;28.37;;;-5.10;99.90;;;;;;5155187;27;20480;-75
2022/12/14 02:16:29;;;;;;;48.50;31.10;;;-5.20;99.90;;;;;;5154958;27;20437;-75
2022/12/14 02:18:57;;;;;;;45.30;29.90;;;-5.20;99.90;;;;;;5154933;27;20453;-75
2022/12/14 02:21:38;;;;;;;46.23;30.83;;;-5.20;99.90;;;;;;5154976;27;20818;-75
2022/12/14 02:24:28;;;;;;;46.43;30.20;;;-5.20;99.90;;;;;;5155130;27;20464;-75
2022/12/14 02:27:36;;;;;;;44.57;30.00;;;-5.30;99.90;;;;;;5155135;27;20749;-75
2022/12/14 02:30:09;;;;;;;47.30;30.13;;;-5.30;99.90;;;;;;5108982;27;20435;-75
2022/12/14 02:33:00;;;;;;;43.73;29.20;;;-5.30;99.90;;;;;;5159364;27;20449;-75
2022/12/14 02:35:42;;;;;;;45.80;29.10;;;-5.30;99.90;;;;;;5147086;27;20483;-75
2022/12/14 02:38:27;;;;;;;44.43;29.30;;;-5.30;99.90;;;;;;5140479;27;20447;-75
2022/12/14 02:41:03;;;;;;;45.70;29.90;;;-5.30;99.90;;;;;;5159160;27;20429;-75
2022/12/14 02:43:37;;;;;;;45.37;29.47;;;-5.40;99.90;;;;;;5159055;27;20418;-75
2022/12/14 02:46:15;;;;;;;44.43;29.87;;;-5.40;99.90;;;;;;5159326;27;20893;-75
2022/12/14 02:48:49;;;;;;;42.60;28.33;;;-5.40;99.90;;;;;;5140160;27;20941;-74
2022/12/14 02:51:26;;;;;;;43.27;29.30;;;-5.40;99.90;;;;;;5140126;27;20430;-75
2022/12/14 02:54:01;;;;;;;36.90;24.07;;;-5.40;99.90;;;;;;5158801;27;20468;-75
2022/12/14 02:56:35;;;;;;;48.07;31.47;;;-5.50;99.90;;;;;;5156979;27;20948;-75
2022/12/14 02:59:08;;;;;;;41.93;30.00;;;-5.40;99.90;;;;;;5137802;27;20478;-75
2022/12/14 03:01:39;;;;;;;40.90;29.20;;;-5.50;99.90;;;;;;5138052;27;20891;-75
2022/12/14 03:04:08;;;;;;;48.43;31.23;;;-5.50;99.90;;;;;;5119232;27;20970;-75
2022/12/14 03:06:37;;;;;;;48.43;31.13;;;-5.50;99.90;;;;;;5119170;27;20454;-75
2022/12/14 03:09:09;;;;;;;39.97;27.50;;;-5.50;99.90;;;;;;5137519;27;20438;-75
2022/12/14 03:11:44;;;;;;;44.57;28.10;;;-5.50;99.90;;;;;;5137485;27;20928;-74
2022/12/14 03:14:18;;;;;;;38.10;27.40;;;-5.50;99.90;;;;;;5137732;27;20474;-74
2022/12/14 03:16:52;;;;;;;39.50;27.97;;;-5.60;99.90;;;;;;5137453;27;20414;-74
2022/12/14 03:19:24;;;;;;;41.70;27.60;;;-5.60;99.90;;;;;;5137483;27;20604;-74
2022/12/14 03:21:57;;;;;;;38.20;23.30;;;-5.60;99.90;;;;;;5137607;27;20940;-74
2022/12/14 03:24:30;;;;;;;40.70;27.93;;;-5.60;99.90;;;;;;5137324;27;20461;-74
2022/12/14 03:27:05;;;;;;;41.63;27.50;;;-5.70;99.90;;;;;;5119298;27;20471;-74
2022/12/14 03:29:39;;;;;;;38.13;27.23;;;-5.70;99.90;;;;;;5137633;27;20440;-75
2022/12/14 03:32:12;;;;;;;40.23;25.70;;;-5.70;99.90;;;;;;5118867;27;20938;-74
2022/12/14 03:34:45;;;;;;;40.00;26.20;;;-5.70;99.90;;;;;;5137395;27;21018;-74
2022/12/14 03:37:18;;;;;;;39.10;26.20;;;-5.70;99.90;;;;;;5137359;27;20888;-75
2022/12/14 03:39:47;;;;;;;43.40;26.20;;;-5.80;99.90;;;;;;5136996;27;20782;-74
2022/12/14 03:42:22;;;;;;;36.17;25.43;;;-5.80;99.90;;;;;;5118063;27;20434;-74
2022/12/14 03:44:58;;;;;;;38.63;26.50;;;-5.80;99.90;;;;;;5118425;27;20549;-74
2022/12/14 03:47:49;;;;;;;37.03;25.07;;;-5.80;99.90;;;;;;5144585;27;20828;-74
2022/12/14 03:50:22;;;;;;;39.63;25.23;;;-5.80;99.90;;;;;;5157481;27;20855;-74
2022/12/14 03:52:56;;;;;;;41.97;26.30;;;-5.80;99.90;;;;;;5157709;27;20410;-74
2022/12/14 03:55:33;;;;;;;36.90;25.00;;;-5.80;99.90;;;;;;5157634;27;20507;-74
2022/12/14 03:58:21;;;;;;;39.97;25.83;;;-5.80;99.90;;;;;;5157391;27;20417;-74
2022/12/14 04:00:57;;;;;;;37.10;26.03;;;-5.90;99.90;;;;;;5157405;27;20421;-74
2022/12/14 04:03:35;;;;;;;37.87;25.40;;;-5.90;99.90;;;;;;5167662;27;20420;-74
2022/12/14 04:06:07;;;;;;;41.03;26.50;;;-5.90;99.90;;;;;;5174536;27;20429;-74
2022/12/14 04:08:43;;;;;;;38.17;25.33;;;-5.90;99.90;;;;;;5155081;27;20456;-74
2022/12/14 04:19:48;;;;;;;37.67;23.63;;;-6.00;99.90;;;;;;5157876;27;20775;-74
2022/12/14 04:22:21;;;;;;;43.37;26.30;;;-6.00;99.90;;;;;;5157482;27;20442;-74
2022/12/14 04:27:45;;;;;;;35.63;24.70;;;-6.00;99.90;;;;;;5138385;27;20441;-74
2022/12/14 04:30:14;;;;;;;40.43;25.67;;;-6.00;99.90;;;;;;5138285;27;20442;-74
2022/12/14 04:32:46;;;;;;;43.50;29.07;;;-6.00;99.90;;;;;;5157044;27;20437;-74
2022/12/14 04:35:20;;;;;;;38.60;26.27;;;-6.00;99.90;;;;;;5156911;27;20513;-74
2022/12/14 04:37:52;;;;;;;35.03;25.17;;;-6.00;99.90;;;;;;5135874;27;20444;-74
2022/12/14 04:40:23;;;;;;;35.93;24.17;;;-6.10;99.90;;;;;;5156997;27;20424;-74
2022/12/14 04:42:55;;;;;;;40.67;29.13;;;-6.10;99.90;;;;;;5156874;27;20417;-74
2022/12/14 04:45:28;;;;;;;41.53;27.23;;;-6.10;99.90;;;;;;5137680;27;20469;-74
2022/12/14 04:48:03;;;;;;;37.07;27.03;;;-6.20;99.90;;;;;;5156443;27;20928;-74
2022/12/14 04:50:38;;;;;;;36.30;24.93;;;-6.20;99.90;;;;;;5156788;27;20432;-74
2022/12/14 04:53:11;;;;;;;42.10;27.37;;;-6.20;99.90;;;;;;5156059;27;20509;-74
2022/12/14 04:55:44;;;;;;;44.37;27.03;;;-6.20;99.90;;;;;;5137714;27;21016;-74
2022/12/14 04:58:22;;;;;;;36.97;27.00;;;-6.20;99.90;;;;;;5137661;27;20922;-74
2022/12/14 05:01:08;;;;;;;38.50;26.97;;;-6.20;99.90;;;;;;5156607;27;20439;-74
2022/12/14 05:03:46;;;;;;;36.60;25.30;;;-6.30;99.90;;;;;;5137422;27;20465;-74
2022/12/14 05:06:22;;;;;;;39.97;26.33;;;-6.30;99.90;;;;;;5156325;27;20425;-75
2022/12/14 05:09:12;;;;;;;46.50;29.47;;;-6.30;99.90;;;;;;5156050;27;20498;-75
2022/12/14 05:11:47;;;;;;;45.40;27.03;;;-6.30;99.90;;;;;;5155770;27;20924;-74
2022/12/14 05:14:28;;;;;;;45.90;25.73;;;-6.30;99.90;;;;;;5137245;27;20486;-75
2022/12/14 05:16:57;;;;;;;38.33;25.03;;;-6.30;99.90;;;;;;5137223;27;20494;-75
2022/12/14 05:19:30;;;;;;;41.30;26.33;;;-6.30;99.90;;;;;;5156048;27;20418;-75
2022/12/14 05:22:02;;;;;;;40.63;25.93;;;-6.30;99.90;;;;;;5156101;27;20426;-75
2022/12/14 05:24:30;;;;;;;46.33;26.83;;;-6.40;99.90;;;;;;5137136;27;20469;-75
2022/12/14 05:26:58;;;;;;;42.93;26.90;;;-6.40;99.90;;;;;;5135314;27;20441;-75
2022/12/14 05:29:26;;;;;;;38.60;25.13;;;-6.40;99.90;;;;;;5155847;27;20449;-74
2022/12/14 05:31:54;;;;;;;45.70;27.30;;;-6.40;99.90;;;;;;5155616;27;20478;-74
2022/12/14 05:34:23;;;;;;;46.90;27.90;;;-6.40;99.90;;;;;;5155635;27;20481;-75
2022/12/14 05:36:51;;;;;;;43.60;28.43;;;-6.40;99.90;;;;;;5155466;27;20492;-75
2022/12/14 05:39:20;;;;;;;40.37;26.10;;;-6.40;99.90;;;;;;5155471;27;20998;-75
2022/12/14 05:41:48;;;;;;;42.30;26.30;;;-6.40;99.90;;;;;;5136847;27;20463;-75
2022/12/14 05:44:16;;;;;;;45.13;28.20;;;-6.40;99.90;;;;;;5155287;27;20502;-75
2022/12/14 05:46:44;;;;;;;42.67;28.90;;;-6.50;99.90;;;;;;5155256;27;20483;-74
2022/12/14 05:49:13;;;;;;;36.17;25.10;;;-6.50;99.90;;;;;;5155324;27;20795;-75
2022/12/14 05:51:41;;;;;;;45.57;28.07;;;-6.50;99.90;;;;;;5155780;27;20434;-75
2022/12/14 05:54:09;;;;;;;39.03;27.40;;;-6.50;99.90;;;;;;5155410;27;20522;-74
2022/12/14 05:56:38;;;;;;;41.37;28.50;;;-6.50;99.90;;;;;;5155157;27;20433;-75
2022/12/14 05:59:06;;;;;;;38.67;26.57;;;-6.50;99.90;;;;;;5155442;27;20436;-74
2022/12/14 06:01:34;;;;;;;37.97;25.83;;;-6.50;99.90;;;;;;5155500;27;20448;-75
2022/12/14 06:04:03;;;;;;;40.80;27.73;;;-6.50;99.90;;;;;;5154953;27;20518;-75
2022/12/14 06:06:33;;;;;;;36.90;27.73;;;-6.50;99.90;;;;;;5155796;27;20461;-75
2022/12/14 06:09:01;;;;;;;35.97;25.03;;;-6.50;99.90;;;;;;5155284;27;20460;-75
2022/12/14 06:11:29;;;;;;;39.83;28.50;;;-6.60;99.90;;;;;;5155067;27;20789;-75
2022/12/14 06:13:59;;;;;;;39.17;26.87;;;-6.60;99.90;;;;;;5154857;27;20460;-75
2022/12/14 06:16:27;;;;;;;37.57;23.60;;;-6.60;99.90;;;;;;5153696;27;20853;-75
2022/12/14 06:18:57;;;;;;;34.73;25.13;;;-6.60;99.90;;;;;;5134746;28;20786;-75
2022/12/14 06:21:28;;;;;;;36.90;26.03;;;-6.60;99.90;;;;;;5115934;28;20498;-75
2022/12/14 06:23:57;;;;;;;40.10;27.03;;;-6.60;99.90;;;;;;5134434;28;20551;-75
2022/12/14 06:26:26;;;;;;;32.80;23.50;;;-6.60;99.90;;;;;;5115858;28;20477;-75
2022/12/14 06:28:56;;;;;;;38.27;25.70;;;-6.60;99.90;;;;;;5134420;28;20462;-75
2022/12/14 06:31:27;;;;;;;36.20;26.38;;;-6.60;99.90;;;;;;5134220;28;20441;-76
2022/12/14 06:33:58;;;;;;;34.77;25.60;;;-6.60;99.90;;;;;;5115677;28;20216;-76
2022/12/14 06:36:27;;;;;;;36.23;27.43;;;-6.60;99.90;;;;;;5134117;28;20411;-76
2022/12/14 06:38:56;;;;;;;32.73;24.83;;;-6.60;99.90;;;;;;5115577;28;20977;-76
2022/12/14 06:41:24;;;;;;;36.00;26.40;;;-6.70;99.90;;;;;;5115688;28;20446;-76
2022/12/14 06:43:53;;;;;;;35.37;25.10;;;-6.60;99.90;;;;;;5115597;28;21011;-76
2022/12/14 06:46:23;;;;;;;43.10;26.10;;;-6.60;99.90;;;;;;5115671;28;20819;-75
2022/12/14 06:48:54;;;;;;;37.43;26.13;;;-6.60;99.90;;;;;;5134017;28;20441;-76
2022/12/14 06:51:23;;;;;;;31.70;24.20;;;-6.70;99.90;;;;;;5134381;28;20417;-75
2022/12/14 06:53:52;;;;;;;38.30;26.63;;;-6.70;99.90;;;;;;5133711;28;20461;-76
2022/12/14 06:56:22;;;;;;;31.80;24.60;;;-6.70;99.90;;;;;;5133857;28;20462;-76
2022/12/14 06:58:51;;;;;;;32.93;25.53;;;-6.70;99.90;;;;;;5134115;28;20442;-76
2022/12/14 07:01:21;;;;;;;32.60;24.40;;;-6.70;99.90;;;;;;5133884;28;20450;-76
2022/12/14 07:03:53;;;;;;;37.27;24.83;;;-6.70;99.90;;;;;;5118280;27;20445;-77
2022/12/14 07:06:22;;;;;;;31.53;23.60;;;-6.70;99.90;;;;;;5131261;27;20490;-76
2022/12/14 07:08:53;;;;;;;29.67;23.47;;;-6.70;99.90;;;;;;5134849;27;20472;-76
2022/12/14 07:11:21;;;;;;;38.37;24.57;;;-6.70;99.90;;;;;;5154474;27;20430;-76
2022/12/14 07:13:49;;;;;;;37.13;24.87;;;-6.70;99.90;;;;;;5153289;27;20524;-76
2022/12/14 07:16:20;;;;;;;32.03;22.43;;;-6.70;99.90;;;;;;5136414;27;20464;-76
2022/12/14 07:18:48;;;;;;;34.57;22.80;;;-6.70;99.90;;;;;;5152723;27;20480;-76
2022/12/14 07:21:20;;;;;;;31.03;23.73;;;-6.70;99.90;;;;;;5139129;27;20945;-76
2022/12/14 07:23:51;;;;;;;33.90;23.63;;;-6.70;99.90;;;;;;5158356;27;20878;-76
2022/12/14 07:26:21;;;;;;;31.23;21.80;;;-6.70;99.90;;;;;;5158159;27;20413;-76
2022/12/14 07:28:50;;;;;;;26.53;18.17;;;-6.70;99.90;;;;;;5135234;27;20807;-76
2022/12/14 07:31:20;;;;;;;31.70;23.27;;;-6.70;99.90;;;;;;5157344;27;20445;-76
2022/12/14 07:33:51;;;;;;;33.97;25.17;;;-6.70;99.90;;;;;;5138406;27;20440;-77
2022/12/14 07:36:22;;;;;;;30.83;22.17;;;-6.70;99.90;;;;;;5158312;27;20536;-77
2022/12/14 07:38:51;;;;;;;34.27;23.47;;;-6.70;99.90;;;;;;5160202;27;20423;-76
2022/12/14 07:41:21;;;;;;;32.77;24.10;;;-6.70;99.90;;;;;;5141126;27;20441;-76
2022/12/14 07:43:51;;;;;;;36.13;25.90;;;-6.70;99.90;;;;;;5139836;27;20440;-75
2022/12/14 07:46:21;;;;;;;32.22;24.00;;;-6.60;99.90;;;;;;5158338;27;20428;-76
2022/12/14 07:48:51;;;;;;;31.83;25.27;;;-6.60;99.90;;;;;;5140137;27;20204;-76
2022/12/14 07:51:24;;;;;;;34.97;24.40;;;-6.60;99.90;;;;;;5158308;27;20437;-76
2022/12/14 07:53:52;;;;;;;36.60;25.30;;;-6.60;99.90;;;;;;5139544;27;20469;-76
2022/12/14 07:56:23;;;;;;;31.20;24.43;;;-6.60;99.90;;;;;;5158356;27;20476;-76
2022/12/14 07:58:52;;;;;;;37.27;24.03;;;-6.60;99.90;;;;;;5139898;27;20443;-76
2022/12/14 08:01:22;;;;;;;30.70;21.80;;;-6.60;99.90;;;;;;5158455;27;20459;-76
2022/12/14 08:03:52;;;;;;;29.63;23.87;;;-6.50;99.90;;;;;;5160087;27;20441;-76
2022/12/14 08:06:23;;;;;;;33.00;24.50;;;-6.50;99.90;;;;;;5142773;27;20444;-76
2022/12/14 08:08:52;;;;;;;33.73;25.70;;;-6.50;99.90;;;;;;5140954;27;20478;-76
2022/12/14 08:11:21;;;;;;;31.10;22.40;;;-6.50;99.90;;;;;;5159529;27;20498;-76
2022/12/14 08:13:53;;;;;;;35.77;24.23;;;-6.60;99.90;;;;;;5158194;27;20430;-76
2022/12/14 08:16:22;;;;;;;31.87;23.47;;;-6.60;99.90;;;;;;5138914;27;20483;-76
2022/12/14 08:18:52;;;;;;;29.30;23.83;;;-6.50;99.90;;;;;;5138957;27;20448;-76
2022/12/14 08:21:22;;;;;;;35.37;25.60;;;-6.50;99.90;;;;;;5155170;27;20436;-76
2022/12/14 08:23:53;;;;;;;33.33;23.90;;;-6.50;99.90;;;;;;5138717;27;20602;-76
2022/12/14 08:26:22;;;;;;;35.27;24.77;;;-6.50;99.90;;;;;;5138737;27;20438;-76
2022/12/14 08:28:53;;;;;;;31.77;25.03;;;-6.50;99.90;;;;;;5157822;27;20471;-76
2022/12/14 08:31:24;;;;;;;32.30;25.63;;;-6.50;99.90;;;;;;5157216;27;20541;-76
2022/12/14 08:33:54;;;;;;;34.37;25.60;;;-6.40;99.90;;;;;;5157558;27;20464;-77
2022/12/14 08:36:27;;;;;;;30.57;23.73;;;-6.40;99.90;;;;;;5157221;27;20457;-76
2022/12/14 08:38:57;;;;;;;31.60;23.67;;;-6.40;99.90;;;;;;5138291;27;20432;-77
2022/12/14 08:41:27;;;;;;;33.03;25.40;;;-6.40;99.90;;;;;;5157065;27;20437;-77
2022/12/14 08:43:56;;;;;;;30.80;23.93;;;-6.40;99.90;;;;;;5157028;27;20451;-76
2022/12/14 08:46:26;;;;;;;34.10;23.97;;;-6.40;99.90;;;;;;5157098;27;20445;-77
2022/12/14 08:48:55;;;;;;;33.33;25.00;;;-6.40;99.90;;;;;;5138117;27;20441;-77
2022/12/14 08:51:26;;;;;;;33.90;25.77;;;-6.40;99.90;;;;;;5138031;27;20446;-77
2022/12/14 08:53:55;;;;;;;33.47;25.83;;;-6.40;99.90;;;;;;5138495;27;20564;-77
2022/12/14 08:56:25;;;;;;;33.40;24.83;;;-6.30;99.90;;;;;;5138407;27;20990;-77
2022/12/14 08:58:53;;;;;;;31.40;25.07;;;-6.30;99.90;;;;;;5138785;27;20437;-77
2022/12/14 09:01:24;;;;;;;34.93;26.10;;;-6.30;99.90;;;;;;5166525;27;20433;-77
2022/12/14 09:04:03;;;;;;;34.13;25.70;;;-6.20;99.90;;;;;;5181964;27;20440;-77
2022/12/14 09:06:35;;;;;;;33.90;25.87;;;-6.20;99.90;;;;;;5164153;27;20444;-77
2022/12/14 09:09:04;;;;;;;38.60;24.97;;;-6.20;99.90;;;;;;5181957;27;20449;-77
2022/12/14 09:11:37;;;;;;;34.83;27.17;;;-6.10;99.90;;;;;;5180138;27;20436;-77
2022/12/14 09:14:06;;;;;;;33.37;25.67;;;-6.10;99.90;;;;;;5178035;27;20456;-77
2022/12/14 09:16:34;;;;;;;34.07;24.73;;;-6.00;99.90;;;;;;5172906;27;20525;-76
2022/12/14 09:19:02;;;;;;;34.10;25.13;;;-6.00;99.90;;;;;;5169818;27;20434;-76
2022/12/14 09:21:31;;;;;;;36.30;26.07;;;-6.00;99.90;;;;;;5167112;27;20452;-76
2022/12/14 09:24:00;;;;;;;34.60;25.83;;;-5.90;99.90;;;;;;5166200;27;21005;-76
2022/12/14 09:26:29;;;;;;;34.90;24.20;;;-5.90;99.90;;;;;;5166747;27;20429;-76
2022/12/14 09:28:57;;;;;;;31.33;23.33;;;-5.80;99.90;;;;;;5165661;27;20444;-77
2022/12/14 09:31:27;;;;;;;33.47;26.43;;;-5.80;99.90;;;;;;5158311;27;20434;-77
2022/12/14 09:33:56;;;;;;;33.97;26.30;;;-5.80;99.90;;;;;;5138271;27;20573;-77
2022/12/14 09:36:26;;;;;;;34.10;24.83;;;-5.80;99.90;;;;;;5138377;27;20542;-79
2022/12/14 09:38:55;;;;;;;37.77;24.43;;;-5.70;99.90;;;;;;5138640;27;20833;-80
2022/12/14 09:41:36;;;;;;;32.57;24.93;;;-5.70;99.90;;;;;;5157381;27;20802;-80
2022/12/14 09:44:13;;;;;;;31.87;25.00;;;-5.60;99.90;;;;;;5156934;27;20896;-80
2022/12/14 09:46:54;;;;;;;31.90;25.83;;;-5.50;99.90;;;;;;5138262;27;20532;-80
2022/12/14 09:49:28;;;;;;;30.63;24.50;;;-5.50;99.90;;;;;;5138067;27;20437;-80
2022/12/14 09:52:00;;;;;;;32.17;24.17;;;-5.50;99.90;;;;;;5156905;27;20440;-80
2022/12/14 09:54:31;;;;;;;30.80;25.03;;;-5.40;99.90;;;;;;5156878;27;20570;-80
2022/12/14 09:57:07;;;;;;;29.03;24.37;;;-5.30;99.90;;;;;;5138336;27;20468;-79
2022/12/14 09:59:35;;;;;;;30.53;24.23;;;-5.30;99.90;;;;;;5138577;27;20437;-79
2022/12/14 10:02:26;;;;;;;31.50;25.57;;;-5.20;99.90;;;;;;5137713;27;21007;-80
2022/12/14 10:05:18;;;;;;;34.37;25.23;;;-5.20;99.90;;;;;;5157440;27;20458;-79
2022/12/14 10:07:57;;;;;;;30.03;26.73;;;-5.10;99.90;;;;;;5138363;27;20456;-79
2022/12/14 10:10:36;;;;;;;28.63;23.43;;;-5.00;99.90;;;;;;5137787;27;20455;-79
2022/12/14 10:13:16;;;;;;;28.40;24.63;;;-5.00;99.90;;;;;;5156532;27;20759;-79
2022/12/14 10:15:53;;;;;;;29.67;23.77;;;-4.90;99.90;;;;;;5137975;27;20464;-80
2022/12/14 10:18:38;;;;;;;30.13;24.43;;;-4.90;99.90;;;;;;5157697;27;20416;-80
2022/12/14 10:21:32;;;;;;;32.00;25.33;;;-4.80;99.90;;;;;;5156704;27;20426;-80
2022/12/14 10:24:03;;;;;;;33.17;26.90;;;-4.80;99.90;;;;;;5137677;27;20460;-80
2022/12/14 10:26:36;;;;;;;31.10;24.90;;;-4.70;99.90;;;;;;5138319;27;20433;-80
2022/12/14 10:29:14;;;;;;;29.77;23.83;;;-4.70;99.90;;;;;;5137946;27;20474;-79
2022/12/14 10:31:54;;;;;;;28.27;24.33;;;-4.60;99.90;;;;;;5157139;27;20419;-79
2022/12/14 10:34:28;;;;;;;29.47;23.30;;;-4.60;99.90;;;;;;5139400;27;20469;-80
2022/12/14 10:37:05;;;;;;;28.77;23.13;;;-4.50;99.90;;;;;;5157452;27;20553;-80
2022/12/14 10:39:45;;;;;;;27.87;24.10;;;-4.50;99.90;;;;;;5156612;27;20906;-80
2022/12/14 10:42:22;;;;;;;26.10;22.90;;;-4.40;99.90;;;;;;5138571;27;20445;-80
2022/12/14 10:45:00;;;;;;;25.90;22.43;;;-4.30;99.90;;;;;;5138560;27;20659;-80
2022/12/14 10:47:52;;;;;;;27.80;23.10;;;-4.30;99.90;;;;;;5139054;27;20430;-80
2022/12/14 10:50:27;;;;;;;27.87;23.93;;;-4.20;99.90;;;;;;5157729;27;20449;-80
2022/12/14 10:52:57;;;;;;;27.93;21.53;;;-4.20;99.90;;;;;;5141001;27;20557;-78
2022/12/14 10:55:33;;;;;;;27.20;22.53;;;-4.10;99.90;;;;;;5140215;27;20465;-78
2022/12/14 10:58:01;;;;;;;29.70;23.70;;;-4.00;99.90;;;;;;5140086;27;21000;-78
2022/12/14 11:00:31;;;;;;;28.87;21.63;;;-4.00;99.90;;;;;;5140180;27;20506;-78
2022/12/14 11:02:59;;;;;;;25.47;21.53;;;-3.90;99.90;;;;;;5158852;27;20538;-79
2022/12/14 11:05:35;;;;;;;26.20;22.23;;;-3.90;99.90;;;;;;5160211;27;21056;-79
2022/12/14 11:08:06;;;;;;;29.10;23.30;;;-3.80;99.90;;;;;;5141732;27;20454;-79
2022/12/14 11:10:38;;;;;;;27.67;23.20;;;-3.80;99.90;;;;;;5160908;27;20414;-79
2022/12/14 11:13:15;;;;;;;25.40;21.87;;;-3.70;99.90;;;;;;5142098;27;20450;-79
2022/12/14 11:15:47;;;;;;;26.23;23.43;;;-3.70;99.90;;;;;;5141685;27;20476;-79
2022/12/14 11:18:27;;;;;;;24.37;21.70;;;-3.70;99.90;;;;;;5141715;27;20484;-79
2022/12/14 11:20:58;;;;;;;28.93;21.93;;;-3.60;99.90;;;;;;5160819;27;20449;-79
2022/12/14 11:23:28;;;;;;;26.17;22.90;;;-3.60;99.90;;;;;;5142096;27;20441;-79
2022/12/14 11:26:00;;;;;;;25.60;21.23;;;-3.50;99.90;;;;;;5142494;27;20441;-79
2022/12/14 11:28:33;;;;;;;25.13;21.90;;;-3.50;99.90;;;;;;5143322;27;20444;-79
2022/12/14 11:31:11;;;;;;;27.17;23.00;;;-3.50;99.90;;;;;;5142777;27;20429;-79
2022/12/14 11:33:44;;;;;;;25.70;22.80;;;-3.40;99.90;;;;;;5142899;27;20456;-79
2022/12/14 11:36:25;;;;;;;23.83;21.23;;;-3.40;99.90;;;;;;5143263;27;20431;-79
2022/12/14 11:38:58;;;;;;;28.10;23.40;;;-3.40;99.90;;;;;;5141138;27;20487;-78
2022/12/14 11:41:32;;;;;;;25.57;22.00;;;-3.40;99.90;;;;;;5158496;27;20454;-80
2022/12/14 11:44:06;;;;;;;26.30;22.60;;;-3.30;99.90;;;;;;5139238;27;20480;-79
2022/12/14 11:46:44;;;;;;;26.57;23.27;;;-3.30;99.90;;;;;;5139327;27;20452;-79
2022/12/14 11:49:22;;;;;;;25.83;23.03;;;-3.20;99.90;;;;;;5140739;27;20490;-79
2022/12/14 11:51:59;;;;;;;30.57;24.00;;;-3.20;99.90;;;;;;5162117;27;20478;-80
2022/12/14 11:54:28;;;;;;;27.00;22.63;;;-3.20;99.90;;;;;;5143705;27;20477;-80
2022/12/14 11:57:00;;;;;;;28.80;23.07;;;-3.10;99.90;;;;;;5142632;27;20461;-80
2022/12/14 11:59:38;;;;;;;26.70;23.90;;;-3.10;99.90;;;;;;5143868;27;20438;-79
2022/12/14 12:02:19;;;;;;;24.97;22.23;;;-3.10;99.90;;;;;;5164989;27;20410;-80
2022/12/14 12:04:52;;;;;;;25.60;21.67;;;-3.00;99.90;;;;;;5144569;27;20460;-80
2022/12/14 12:07:27;;;;;;;23.27;20.73;;;-3.00;99.90;;;;;;5162250;27;20514;-79
2022/12/14 12:09:59;;;;;;;25.87;22.40;;;-3.00;99.90;;;;;;5143042;27;20992;-79
2022/12/14 12:12:28;;;;;;;23.63;20.73;;;-2.90;99.90;;;;;;5162304;27;20414;-80
2022/12/14 12:14:57;;;;;;;26.37;21.93;;;-2.90;99.90;;;;;;5159645;27;20817;-80
2022/12/14 12:17:43;;;;;;;27.23;23.80;;;-2.90;99.90;;;;;;5159456;27;20465;-80
2022/12/14 12:20:29;;;;;;;25.40;22.10;;;-2.90;99.90;;;;;;5159394;27;20509;-79
2022/12/14 12:23:04;;;;;;;28.03;24.27;;;-2.90;99.90;;;;;;5159841;27;20513;-78
2022/12/14 12:25:36;;;;;;;26.47;23.50;;;-2.80;99.90;;;;;;5159140;27;20453;-79
2022/12/14 12:28:15;;;;;;;26.53;21.87;;;-2.80;99.90;;;;;;5140018;27;20438;-79
2022/12/14 12:30:48;;;;;;;25.77;22.97;;;-2.70;99.90;;;;;;5159671;27;20425;-80
2022/12/14 12:33:35;;;;;;;28.33;22.77;;;-2.70;99.90;;;;;;5137962;27;20488;-79
2022/12/14 12:36:05;;;;;;;26.43;23.53;;;-2.70;99.90;;;;;;5139790;27;20444;-79
2022/12/14 12:38:43;;;;;;;28.33;25.30;;;-2.60;99.90;;;;;;5139258;27;20453;-79
2022/12/14 12:41:32;;;;;;;25.17;22.13;;;-2.60;99.90;;;;;;5139596;27;20442;-79
2022/12/14 12:44:11;;;;;;;24.23;21.63;;;-2.60;99.90;;;;;;5139497;27;20530;-79
2022/12/14 12:46:49;;;;;;;26.53;23.63;;;-2.60;99.90;;;;;;5139484;27;20452;-79
2022/12/14 12:49:39;;;;;;;28.53;23.30;;;-2.50;99.90;;;;;;5157880;27;20821;-79
2022/12/14 12:52:18;;;;;;;23.83;21.30;;;-2.50;99.90;;;;;;5157916;27;20437;-79
2022/12/14 12:54:54;;;;;;;27.17;24.23;;;-2.20;99.90;;;;;;5139047;27;20982;-79
2022/12/14 12:57:25;;;;;;;25.00;22.40;;;-2.50;99.90;;;;;;5139484;27;20802;-79
2022/12/14 12:59:55;;;;;;;24.80;21.57;;;-2.50;99.90;;;;;;5139317;27;20437;-79
2022/12/14 13:02:31;;;;;;;28.13;25.13;;;-2.40;99.90;;;;;;5138798;27;20502;-79
2022/12/14 13:05:04;;;;;;;24.87;21.77;;;-2.40;99.90;;;;;;5157950;27;20517;-79
2022/12/14 13:07:56;;;;;;;27.50;22.80;;;-2.40;99.90;;;;;;5138169;27;20815;-79